sensor_id;sensor_type;location;lat;lon;timestamp;pressure;altitude;pressure_sealevel;temperature;humidity
40708;BME280;26392;42.696;23.350;2022-08-27T00:01:25;94927.19;;;18.54;76.46
40708;BME280;26392;42.696;23.350;2022-08-27T00:03:53;94922.47;;;18.55;76.48
40708;BME280;26392;42.696;23.350;2022-08-27T00:06:18;94920.34;;;18.52;76.15
40708;BME280;26392;42.696;23.350;2022-08-27T00:08:45;94919.56;;;18.51;75.63
40708;BME280;26392;42.696;23.350;2022-08-27T00:11:12;94915.28;;;18.45;75.02
40708;BME280;26392;42.696;23.350;2022-08-27T00:13:38;94922.56;;;18.41;75.45
40708;BME280;26392;42.696;23.350;2022-08-27T00:16:05;94922.50;;;18.32;75.64
40708;BME280;26392;42.696;23.350;2022-08-27T00:18:33;94927.31;;;18.27;75.46
40708;BME280;26392;42.696;23.350;2022-08-27T00:20:59;94913.03;;;18.25;75.49
40708;BME280;26392;42.696;23.350;2022-08-27T00:23:25;94922.16;;;18.34;75.59
40708;BME280;26392;42.696;23.350;2022-08-27T00:25:51;94916.66;;;18.34;75.80
40708;BME280;26392;42.696;23.350;2022-08-27T00:28:17;94920.84;;;18.31;76.35
40708;BME280;26392;42.696;23.350;2022-08-27T00:30:43;94922.44;;;18.24;77.07
40708;BME280;26392;42.696;23.350;2022-08-27T00:33:09;94912.72;;;18.26;76.89
40708;BME280;26392;42.696;23.350;2022-08-27T00:35:35;94909.97;;;18.26;76.46
40708;BME280;26392;42.696;23.350;2022-08-27T00:38:02;94906.19;;;18.22;76.49
40708;BME280;26392;42.696;23.350;2022-08-27T00:40:28;94904.88;;;18.20;76.70
40708;BME280;26392;42.696;23.350;2022-08-27T00:42:53;94905.50;;;18.17;77.02
40708;BME280;26392;42.696;23.350;2022-08-27T00:45:21;94911.13;;;18.11;76.96
40708;BME280;26392;42.696;23.350;2022-08-27T00:47:53;94911.13;;;18.11;77.69
40708;BME280;26392;42.696;23.350;2022-08-27T00:50:37;94919.84;;;18.05;76.82
40708;BME280;26392;42.696;23.350;2022-08-27T00:53:21;94919.59;;;17.93;76.38
40708;BME280;26392;42.696;23.350;2022-08-27T00:56:09;94924.91;;;17.89;76.25
40708;BME280;26392;42.696;23.350;2022-08-27T00:58:41;94913.00;;;17.80;76.44
40708;BME280;26392;42.696;23.350;2022-08-27T01:01:12;94910.75;;;17.68;76.97
40708;BME280;26392;42.696;23.350;2022-08-27T01:03:39;94911.03;;;17.66;76.94
40708;BME280;26392;42.696;23.350;2022-08-27T01:06:09;94911.56;;;17.68;77.17
40708;BME280;26392;42.696;23.350;2022-08-27T01:08:36;94911.66;;;17.63;77.61
40708;BME280;26392;42.696;23.350;2022-08-27T01:11:03;94915.25;;;17.64;77.76
40708;BME280;26392;42.696;23.350;2022-08-27T01:13:31;94908.91;;;17.63;77.65
40708;BME280;26392;42.696;23.350;2022-08-27T01:15:58;94912.28;;;17.60;77.75
40708;BME280;26392;42.696;23.350;2022-08-27T01:18:28;94915.84;;;17.61;77.93
40708;BME280;26392;42.696;23.350;2022-08-27T01:21:19;94906.88;;;17.55;78.20
40708;BME280;26392;42.696;23.350;2022-08-27T01:26:30;94909.56;;;17.47;79.07
40708;BME280;26392;42.696;23.350;2022-08-27T01:28:56;94920.38;;;17.43;79.20
40708;BME280;26392;42.696;23.350;2022-08-27T01:31:22;94916.13;;;17.37;79.46
40708;BME280;26392;42.696;23.350;2022-08-27T01:34:13;94919.78;;;17.32;79.78
40708;BME280;26392;42.696;23.350;2022-08-27T01:36:39;94919.59;;;17.29;79.75
40708;BME280;26392;42.696;23.350;2022-08-27T01:39:05;94908.25;;;17.30;79.46
40708;BME280;26392;42.696;23.350;2022-08-27T01:41:31;94913.56;;;17.27;79.84
40708;BME280;26392;42.696;23.350;2022-08-27T01:43:56;94913.84;;;17.25;80.06
40708;BME280;26392;42.696;23.350;2022-08-27T01:46:24;94917.84;;;17.33;80.54
40708;BME280;26392;42.696;23.350;2022-08-27T01:48:50;94914.47;;;17.22;80.40
40708;BME280;26392;42.696;23.350;2022-08-27T01:51:15;94921.53;;;17.14;80.66
40708;BME280;26392;42.696;23.350;2022-08-27T01:53:41;94931.31;;;17.20;79.72
40708;BME280;26392;42.696;23.350;2022-08-27T01:56:07;94930.41;;;17.11;80.53
40708;BME280;26392;42.696;23.350;2022-08-27T01:58:33;94925.00;;;17.06;80.95
40708;BME280;26392;42.696;23.350;2022-08-27T02:01:05;94923.06;;;17.07;80.96
40708;BME280;26392;42.696;23.350;2022-08-27T02:03:31;94922.16;;;17.11;81.23
40708;BME280;26392;42.696;23.350;2022-08-27T02:06:03;94925.91;;;17.02;81.42
40708;BME280;26392;42.696;23.350;2022-08-27T02:08:29;94924.91;;;16.97;81.80
40708;BME280;26392;42.696;23.350;2022-08-27T02:10:55;94929.56;;;16.97;81.99
40708;BME280;26392;42.696;23.350;2022-08-27T02:13:20;94928.13;;;16.86;82.48
40708;BME280;26392;42.696;23.350;2022-08-27T02:15:45;94928.53;;;16.79;82.87
40708;BME280;26392;42.696;23.350;2022-08-27T02:18:12;94932.16;;;16.74;83.38
40708;BME280;26392;42.696;23.350;2022-08-27T02:20:38;94938.34;;;16.66;83.68
40708;BME280;26392;42.696;23.350;2022-08-27T02:23:03;94924.59;;;16.66;83.70
40708;BME280;26392;42.696;23.350;2022-08-27T02:25:29;94935.31;;;16.68;83.50
40708;BME280;26392;42.696;23.350;2022-08-27T02:27:57;94925.44;;;16.67;83.55
40708;BME280;26392;42.696;23.350;2022-08-27T02:30:25;94930.34;;;16.70;83.45
40708;BME280;26392;42.696;23.350;2022-08-27T02:32:51;94933.47;;;16.63;83.55
40708;BME280;26392;42.696;23.350;2022-08-27T02:35:18;94941.91;;;16.53;84.05
40708;BME280;26392;42.696;23.350;2022-08-27T02:37:44;94937.31;;;16.48;84.36
40708;BME280;26392;42.696;23.350;2022-08-27T02:40:12;94935.97;;;16.46;84.41
40708;BME280;26392;42.696;23.350;2022-08-27T02:42:42;94942.59;;;16.45;84.47
40708;BME280;26392;42.696;23.350;2022-08-27T02:45:08;94949.34;;;16.52;84.40
40708;BME280;26392;42.696;23.350;2022-08-27T02:47:34;94947.81;;;16.60;84.70
40708;BME280;26392;42.696;23.350;2022-08-27T02:50:00;94950.44;;;16.51;84.46
40708;BME280;26392;42.696;23.350;2022-08-27T02:52:26;94950.03;;;16.44;85.02
40708;BME280;26392;42.696;23.350;2022-08-27T02:54:52;94948.94;;;16.26;85.54
40708;BME280;26392;42.696;23.350;2022-08-27T02:57:17;94955.94;;;16.19;86.35
40708;BME280;26392;42.696;23.350;2022-08-27T02:59:43;94949.94;;;16.17;86.63
40708;BME280;26392;42.696;23.350;2022-08-27T03:02:09;94953.69;;;16.21;86.45
40708;BME280;26392;42.696;23.350;2022-08-27T03:04:35;94954.63;;;16.16;86.95
40708;BME280;26392;42.696;23.350;2022-08-27T03:07:00;94950.22;;;16.15;87.24
40708;BME280;26392;42.696;23.350;2022-08-27T03:09:25;94954.03;;;16.19;86.74
40708;BME280;26392;42.696;23.350;2022-08-27T03:11:51;94957.56;;;16.20;86.87
40708;BME280;26392;42.696;23.350;2022-08-27T03:14:18;94951.16;;;16.24;87.14
40708;BME280;26392;42.696;23.350;2022-08-27T03:16:43;94956.59;;;16.29;87.20
40708;BME280;26392;42.696;23.350;2022-08-27T03:19:09;94962.41;;;16.28;87.31
40708;BME280;26392;42.696;23.350;2022-08-27T03:21:35;94961.06;;;16.25;87.13
40708;BME280;26392;42.696;23.350;2022-08-27T03:24:02;94959.28;;;16.16;87.03
40708;BME280;26392;42.696;23.350;2022-08-27T03:26:29;94966.72;;;16.15;87.20
40708;BME280;26392;42.696;23.350;2022-08-27T03:28:55;94970.06;;;16.12;86.60
40708;BME280;26392;42.696;23.350;2022-08-27T03:31:23;94972.72;;;16.17;86.60
40708;BME280;26392;42.696;23.350;2022-08-27T03:33:57;94969.16;;;16.17;86.71
40708;BME280;26392;42.696;23.350;2022-08-27T03:36:24;94970.28;;;16.16;86.27
40708;BME280;26392;42.696;23.350;2022-08-27T03:38:50;94974.94;;;16.15;86.40
40708;BME280;26392;42.696;23.350;2022-08-27T03:41:16;94979.63;;;16.15;86.28
40708;BME280;26392;42.696;23.350;2022-08-27T03:43:42;94981.78;;;16.18;85.66
40708;BME280;26392;42.696;23.350;2022-08-27T03:46:08;94976.59;;;16.16;85.63
40708;BME280;26392;42.696;23.350;2022-08-27T03:48:34;94975.75;;;16.16;85.52
40708;BME280;26392;42.696;23.350;2022-08-27T03:51:05;94979.03;;;16.18;85.07
40708;BME280;26392;42.696;23.350;2022-08-27T03:53:32;94977.91;;;16.19;85.18
40708;BME280;26392;42.696;23.350;2022-08-27T03:55:57;94978.75;;;16.19;85.20
40708;BME280;26392;42.696;23.350;2022-08-27T03:58:23;94988.63;;;16.20;85.47
40708;BME280;26392;42.696;23.350;2022-08-27T04:00:49;94983.13;;;16.20;85.38
40708;BME280;26392;42.696;23.350;2022-08-27T04:03:14;94985.72;;;16.11;86.21
40708;BME280;26392;42.696;23.350;2022-08-27T04:05:40;94986.22;;;16.32;86.11
40708;BME280;26392;42.696;23.350;2022-08-27T04:08:07;94995.66;;;16.45;85.11
40708;BME280;26392;42.696;23.350;2022-08-27T04:10:33;94988.56;;;16.58;85.75
40708;BME280;26392;42.696;23.350;2022-08-27T04:12:58;94996.44;;;16.65;85.78
40708;BME280;26392;42.696;23.350;2022-08-27T04:15:25;94994.94;;;16.72;85.75
40708;BME280;26392;42.696;23.350;2022-08-27T04:17:50;94997.50;;;16.83;85.47
40708;BME280;26392;42.696;23.350;2022-08-27T04:20:16;94996.81;;;16.91;85.48
40708;BME280;26392;42.696;23.350;2022-08-27T04:22:41;95000.94;;;17.07;84.88
40708;BME280;26392;42.696;23.350;2022-08-27T04:25:07;94995.97;;;17.37;84.65
40708;BME280;26392;42.696;23.350;2022-08-27T04:27:33;95001.34;;;17.70;83.09
40708;BME280;26392;42.696;23.350;2022-08-27T04:29:59;95002.56;;;17.91;78.49
40708;BME280;26392;42.696;23.350;2022-08-27T04:32:27;95004.78;;;18.03;76.82
40708;BME280;26392;42.696;23.350;2022-08-27T04:34:57;94999.09;;;17.99;75.96
40708;BME280;26392;42.696;23.350;2022-08-27T04:37:24;95004.34;;;17.87;75.98
40708;BME280;26392;42.696;23.350;2022-08-27T04:39:50;95003.31;;;17.83;76.47
40708;BME280;26392;42.696;23.350;2022-08-27T04:42:18;95002.78;;;17.81;76.39
40708;BME280;26392;42.696;23.350;2022-08-27T04:44:44;94996.78;;;17.79;77.06
40708;BME280;26392;42.696;23.350;2022-08-27T04:47:10;95004.31;;;17.73;77.25
40708;BME280;26392;42.696;23.350;2022-08-27T04:49:35;95005.53;;;17.67;77.65
40708;BME280;26392;42.696;23.350;2022-08-27T04:52:03;95006.38;;;17.67;77.91
40708;BME280;26392;42.696;23.350;2022-08-27T04:54:29;95006.28;;;17.59;77.93
40708;BME280;26392;42.696;23.350;2022-08-27T04:56:54;95013.50;;;17.68;77.41
40708;BME280;26392;42.696;23.350;2022-08-27T04:59:20;95012.97;;;17.66;77.36
40708;BME280;26392;42.696;23.350;2022-08-27T05:01:46;95020.34;;;17.43;77.50
40708;BME280;26392;42.696;23.350;2022-08-27T05:04:14;95022.88;;;17.26;78.18
40708;BME280;26392;42.696;23.350;2022-08-27T05:06:40;95021.84;;;17.22;77.81
40708;BME280;26392;42.696;23.350;2022-08-27T05:09:06;95019.50;;;17.29;78.40
40708;BME280;26392;42.696;23.350;2022-08-27T05:11:32;95020.25;;;17.49;77.38
40708;BME280;26392;42.696;23.350;2022-08-27T05:14:03;95014.31;;;17.55;76.85
40708;BME280;26392;42.696;23.350;2022-08-27T05:16:30;95025.03;;;17.71;76.92
40708;BME280;26392;42.696;23.350;2022-08-27T05:18:57;95025.03;;;17.71;76.72
40708;BME280;26392;42.696;23.350;2022-08-27T05:21:29;95026.47;;;17.82;76.52
40708;BME280;26392;42.696;23.350;2022-08-27T05:23:58;95029.50;;;17.94;76.37
40708;BME280;26392;42.696;23.350;2022-08-27T05:26:26;95021.91;;;18.14;75.06
40708;BME280;26392;42.696;23.350;2022-08-27T05:28:52;95027.22;;;18.24;74.89
40708;BME280;26392;42.696;23.350;2022-08-27T05:31:18;95025.22;;;18.38;74.15
40708;BME280;26392;42.696;23.350;2022-08-27T05:33:44;95017.94;;;18.42;74.69
40708;BME280;26392;42.696;23.350;2022-08-27T05:36:19;95023.41;;;18.56;73.86
40708;BME280;26392;42.696;23.350;2022-08-27T05:38:46;95029.38;;;18.72;72.94
40708;BME280;26392;42.696;23.350;2022-08-27T05:41:15;95027.41;;;18.86;72.32
40708;BME280;26392;42.696;23.350;2022-08-27T05:43:42;95026.81;;;18.98;71.84
40708;BME280;26392;42.696;23.350;2022-08-27T05:46:10;95035.03;;;19.12;71.49
40708;BME280;26392;42.696;23.350;2022-08-27T05:48:37;95028.69;;;19.11;71.12
40708;BME280;26392;42.696;23.350;2022-08-27T05:51:17;95029.25;;;19.22;70.43
40708;BME280;26392;42.696;23.350;2022-08-27T05:53:43;95031.50;;;19.20;70.30
40708;BME280;26392;42.696;23.350;2022-08-27T05:56:14;95033.50;;;19.28;70.39
40708;BME280;26392;42.696;23.350;2022-08-27T05:58:40;95034.38;;;19.46;69.77
40708;BME280;26392;42.696;23.350;2022-08-27T06:01:25;95041.75;;;19.59;69.93
40708;BME280;26392;42.696;23.350;2022-08-27T06:03:51;95035.78;;;19.66;69.09
40708;BME280;26392;42.696;23.350;2022-08-27T06:06:19;95036.47;;;19.72;69.26
40708;BME280;26392;42.696;23.350;2022-08-27T06:08:47;95041.19;;;19.71;69.17
40708;BME280;26392;42.696;23.350;2022-08-27T06:11:13;95040.72;;;19.69;69.21
40708;BME280;26392;42.696;23.350;2022-08-27T06:13:39;95039.34;;;19.58;68.79
40708;BME280;26392;42.696;23.350;2022-08-27T06:16:07;95040.53;;;19.74;69.25
40708;BME280;26392;42.696;23.350;2022-08-27T06:18:35;95043.81;;;19.76;68.49
40708;BME280;26392;42.696;23.350;2022-08-27T06:21:01;95044.81;;;19.80;68.36
40708;BME280;26392;42.696;23.350;2022-08-27T06:23:27;95042.06;;;19.89;67.83
40708;BME280;26392;42.696;23.350;2022-08-27T06:25:54;95045.34;;;20.00;67.39
40708;BME280;26392;42.696;23.350;2022-08-27T06:28:20;95045.19;;;20.05;67.07
40708;BME280;26392;42.696;23.350;2022-08-27T06:30:47;95042.63;;;20.17;66.81
40708;BME280;26392;42.696;23.350;2022-08-27T06:33:13;95046.84;;;20.23;66.76
40708;BME280;26392;42.696;23.350;2022-08-27T06:35:39;95046.38;;;20.30;66.16
40708;BME280;26392;42.696;23.350;2022-08-27T06:38:04;95042.34;;;20.45;65.92
40708;BME280;26392;42.696;23.350;2022-08-27T06:40:29;95041.88;;;20.60;64.66
40708;BME280;26392;42.696;23.350;2022-08-27T06:42:55;95039.75;;;20.74;63.52
40708;BME280;26392;42.696;23.350;2022-08-27T06:45:20;95043.97;;;20.89;63.32
40708;BME280;26392;42.696;23.350;2022-08-27T06:47:46;95039.56;;;20.88;64.28
40708;BME280;26392;42.696;23.350;2022-08-27T06:50:11;95034.84;;;20.97;62.20
40708;BME280;26392;42.696;23.350;2022-08-27T06:52:37;95031.25;;;20.97;62.22
40708;BME280;26392;42.696;23.350;2022-08-27T06:55:03;95040.72;;;20.96;63.34
40708;BME280;26392;42.696;23.350;2022-08-27T06:57:29;95044.94;;;21.02;61.93
40708;BME280;26392;42.696;23.350;2022-08-27T06:59:54;95035.81;;;21.10;61.70
40708;BME280;26392;42.696;23.350;2022-08-27T07:02:20;95041.47;;;21.22;61.23
40708;BME280;26392;42.696;23.350;2022-08-27T07:04:45;95043.16;;;21.06;61.20
40708;BME280;26392;42.696;23.350;2022-08-27T07:07:12;95037.53;;;21.32;61.39
40708;BME280;26392;42.696;23.350;2022-08-27T07:09:38;95039.00;;;21.47;60.79
40708;BME280;26392;42.696;23.350;2022-08-27T07:12:04;95035.50;;;21.59;60.29
40708;BME280;26392;42.696;23.350;2022-08-27T07:14:31;95031.06;;;21.75;60.42
40708;BME280;26392;42.696;23.350;2022-08-27T07:16:56;95032.94;;;21.92;59.97
40708;BME280;26392;42.696;23.350;2022-08-27T07:19:22;95021.72;;;22.09;58.25
40708;BME280;26392;42.696;23.350;2022-08-27T07:21:47;95022.66;;;22.22;57.50
40708;BME280;26392;42.696;23.350;2022-08-27T07:24:13;95027.84;;;22.32;57.26
40708;BME280;26392;42.696;23.350;2022-08-27T07:26:42;95022.91;;;22.38;58.12
40708;BME280;26392;42.696;23.350;2022-08-27T07:29:09;95031.09;;;22.55;57.06
40708;BME280;26392;42.696;23.350;2022-08-27T07:31:35;95036.44;;;22.61;58.08
40708;BME280;26392;42.696;23.350;2022-08-27T07:34:02;95032.38;;;22.58;56.92
40708;BME280;26392;42.696;23.350;2022-08-27T07:36:28;95038.88;;;22.62;55.87
40708;BME280;26392;42.696;23.350;2022-08-27T07:38:53;95031.56;;;22.58;56.03
40708;BME280;26392;42.696;23.350;2022-08-27T07:41:19;95025.66;;;22.80;55.88
40708;BME280;26392;42.696;23.350;2022-08-27T07:43:44;95037.94;;;23.00;56.20
40708;BME280;26392;42.696;23.350;2022-08-27T07:46:28;95035.59;;;23.02;55.71
40708;BME280;26392;42.696;23.350;2022-08-27T07:48:54;95036.69;;;23.10;54.86
40708;BME280;26392;42.696;23.350;2022-08-27T07:51:23;95034.09;;;23.26;54.99
40708;BME280;26392;42.696;23.350;2022-08-27T07:53:49;95042.59;;;23.41;55.24
40708;BME280;26392;42.696;23.350;2022-08-27T07:56:15;95033.00;;;23.51;54.66
40708;BME280;26392;42.696;23.350;2022-08-27T07:58:42;95029.88;;;23.65;53.90
40708;BME280;26392;42.696;23.350;2022-08-27T08:01:08;95037.13;;;23.78;53.78
40708;BME280;26392;42.696;23.350;2022-08-27T08:03:34;95037.13;;;23.90;52.89
40708;BME280;26392;42.696;23.350;2022-08-27T08:06:13;95031.91;;;24.01;51.74
40708;BME280;26392;42.696;23.350;2022-08-27T08:08:40;95033.19;;;24.16;51.92
40708;BME280;26392;42.696;23.350;2022-08-27T08:11:10;95035.59;;;24.30;51.43
40708;BME280;26392;42.696;23.350;2022-08-27T08:13:36;95027.81;;;24.35;50.85
40708;BME280;26392;42.696;23.350;2022-08-27T08:16:02;95028.53;;;24.45;50.50
40708;BME280;26392;42.696;23.350;2022-08-27T08:18:28;95021.69;;;24.54;50.95
40708;BME280;26392;42.696;23.350;2022-08-27T08:21:05;95025.34;;;24.71;50.87
40708;BME280;26392;42.696;23.350;2022-08-27T08:23:32;95017.03;;;24.87;49.10
40708;BME280;26392;42.696;23.350;2022-08-27T08:25:58;95016.63;;;25.00;49.01
40708;BME280;26392;42.696;23.350;2022-08-27T08:28:25;95016.47;;;25.09;48.90
40708;BME280;26392;42.696;23.350;2022-08-27T08:30:52;95015.13;;;25.15;48.34
40708;BME280;26392;42.696;23.350;2022-08-27T08:33:18;95008.19;;;25.25;48.68
40708;BME280;26392;42.696;23.350;2022-08-27T08:35:44;95017.56;;;25.33;47.49
40708;BME280;26392;42.696;23.350;2022-08-27T08:38:10;95006.16;;;25.38;47.07
40708;BME280;26392;42.696;23.350;2022-08-27T08:40:40;95008.41;;;25.48;47.12
40708;BME280;26392;42.696;23.350;2022-08-27T08:43:12;95010.22;;;25.56;46.98
40708;BME280;26392;42.696;23.350;2022-08-27T08:45:45;95003.94;;;25.59;47.41
40708;BME280;26392;42.696;23.350;2022-08-27T08:48:15;95013.75;;;25.69;47.22
40708;BME280;26392;42.696;23.350;2022-08-27T08:53:40;95003.94;;;26.07;46.34
40708;BME280;26392;42.696;23.350;2022-08-27T08:56:10;95008.00;;;26.09;45.99
40708;BME280;26392;42.696;23.350;2022-08-27T09:01:10;95007.25;;;26.28;45.34
40708;BME280;26392;42.696;23.350;2022-08-27T09:03:38;95000.91;;;26.47;44.17
40708;BME280;26392;42.696;23.350;2022-08-27T09:08:50;95005.44;;;26.71;44.01
40708;BME280;26392;42.696;23.350;2022-08-27T09:11:35;95004.88;;;26.82;43.58
40708;BME280;26392;42.696;23.350;2022-08-27T09:16:43;95000.81;;;26.98;42.14
40708;BME280;26392;42.696;23.350;2022-08-27T09:19:08;94992.22;;;27.07;43.07
40708;BME280;26392;42.696;23.350;2022-08-27T09:24:28;94991.78;;;27.25;39.97
40708;BME280;26392;42.696;23.350;2022-08-27T09:26:58;94998.09;;;27.41;40.80
40708;BME280;26392;42.696;23.350;2022-08-27T09:29:26;94989.91;;;27.52;39.78
40708;BME280;26392;42.696;23.350;2022-08-27T09:32:04;94978.47;;;27.60;39.23
40708;BME280;26392;42.696;23.350;2022-08-27T09:34:39;94987.63;;;27.80;39.47
40708;BME280;26392;42.696;23.350;2022-08-27T09:39:42;94981.19;;;28.03;38.51
40708;BME280;26392;42.696;23.350;2022-08-27T09:42:22;94979.34;;;28.10;37.94
40708;BME280;26392;42.696;23.350;2022-08-27T09:44:52;94981.06;;;28.19;37.78
40708;BME280;26392;42.696;23.350;2022-08-27T09:47:18;94979.06;;;28.19;38.22
40708;BME280;26392;42.696;23.350;2022-08-27T09:49:44;94980.47;;;28.32;38.06
40708;BME280;26392;42.696;23.350;2022-08-27T09:52:27;94978.94;;;28.39;36.30
40708;BME280;26392;42.696;23.350;2022-08-27T09:54:55;94979.47;;;28.44;36.12
40708;BME280;26392;42.696;23.350;2022-08-27T09:57:31;94976.06;;;28.58;37.21
40708;BME280;26392;42.696;23.350;2022-08-27T09:59:59;94973.78;;;28.67;37.24
40708;BME280;26392;42.696;23.350;2022-08-27T10:02:25;94971.03;;;28.71;36.52
40708;BME280;26392;42.696;23.350;2022-08-27T10:04:56;94970.31;;;28.77;34.40
40708;BME280;26392;42.696;23.350;2022-08-27T10:07:56;94968.03;;;28.87;35.13
40708;BME280;26392;42.696;23.350;2022-08-27T10:13:08;94971.41;;;28.99;33.71
40708;BME280;26392;42.696;23.350;2022-08-27T10:16:06;94967.34;;;28.97;33.46
40708;BME280;26392;42.696;23.350;2022-08-27T10:21:22;94955.97;;;29.13;34.17
40708;BME280;26392;42.696;23.350;2022-08-27T10:26:33;94961.75;;;29.31;33.98
40708;BME280;26392;42.696;23.350;2022-08-27T10:29:23;94957.91;;;29.46;32.33
40708;BME280;26392;42.696;23.350;2022-08-27T10:35:08;94956.44;;;29.59;30.86
40708;BME280;26392;42.696;23.350;2022-08-27T10:54:47;94957.44;;;29.40;32.26
40708;BME280;26392;42.696;23.350;2022-08-27T11:02:46;94949.81;;;29.75;30.15
40708;BME280;26392;42.696;23.350;2022-08-27T11:05:21;94951.41;;;29.76;31.12
40708;BME280;26392;42.696;23.350;2022-08-27T11:08:02;94949.13;;;29.88;29.97
40708;BME280;26392;42.696;23.350;2022-08-27T11:10:37;94950.03;;;30.03;29.46
40708;BME280;26392;42.696;23.350;2022-08-27T11:13:16;94952.44;;;30.05;30.41
40708;BME280;26392;42.696;23.350;2022-08-27T11:15:45;94942.06;;;30.09;31.23
40708;BME280;26392;42.696;23.350;2022-08-27T11:18:39;94936.41;;;30.05;29.91
40708;BME280;26392;42.696;23.350;2022-08-27T11:21:21;94934.41;;;30.06;29.00
40708;BME280;26392;42.696;23.350;2022-08-27T11:23:55;94933.28;;;30.18;29.55
40708;BME280;26392;42.696;23.350;2022-08-27T11:26:22;94926.13;;;30.27;30.32
40708;BME280;26392;42.696;23.350;2022-08-27T11:28:54;94925.22;;;30.16;29.92
40708;BME280;26392;42.696;23.350;2022-08-27T11:31:23;94926.44;;;30.19;30.13
40708;BME280;26392;42.696;23.350;2022-08-27T11:34:09;94922.75;;;30.07;29.52
40708;BME280;26392;42.696;23.350;2022-08-27T11:39:27;94914.75;;;30.06;30.86
40708;BME280;26392;42.696;23.350;2022-08-27T11:44:50;94912.28;;;30.01;29.92
40708;BME280;26392;42.696;23.350;2022-08-27T11:47:21;94910.28;;;29.98;30.76
40708;BME280;26392;42.696;23.350;2022-08-27T11:49:57;94906.31;;;30.06;31.21
40708;BME280;26392;42.696;23.350;2022-08-27T11:52:28;94911.00;;;29.91;29.54
40708;BME280;26392;42.696;23.350;2022-08-27T11:55:10;94918.69;;;29.94;30.08
40708;BME280;26392;42.696;23.350;2022-08-27T11:57:37;94903.47;;;30.02;30.54
40708;BME280;26392;42.696;23.350;2022-08-27T12:00:18;94904.75;;;30.12;31.51
40708;BME280;26392;42.696;23.350;2022-08-27T12:14:06;94894.91;;;30.40;30.04
40708;BME280;26392;42.696;23.350;2022-08-27T12:25:21;94881.84;;;30.76;28.11
40708;BME280;26392;42.696;23.350;2022-08-27T12:27:56;94879.47;;;30.82;28.03
40708;BME280;26392;42.696;23.350;2022-08-27T12:30:30;94876.66;;;30.89;29.02
40708;BME280;26392;42.696;23.350;2022-08-27T12:32:58;94874.69;;;30.93;28.73
40708;BME280;26392;42.696;23.350;2022-08-27T12:35:36;94867.09;;;31.01;28.28
40708;BME280;26392;42.696;23.350;2022-08-27T12:38:15;94871.91;;;31.07;28.46
40708;BME280;26392;42.696;23.350;2022-08-27T12:40:49;94867.91;;;31.22;27.93
40708;BME280;26392;42.696;23.350;2022-08-27T12:43:24;94861.50;;;31.22;28.80
40708;BME280;26392;42.696;23.350;2022-08-27T12:45:51;94865.50;;;31.28;27.72
40708;BME280;26392;42.696;23.350;2022-08-27T12:48:20;94864.31;;;31.29;28.38
40708;BME280;26392;42.696;23.350;2022-08-27T12:50:52;94866.34;;;31.32;28.09
40708;BME280;26392;42.696;23.350;2022-08-27T12:54:03;94867.19;;;31.40;27.43
40708;BME280;26392;42.696;23.350;2022-08-27T12:56:47;94858.31;;;31.34;28.66
40708;BME280;26392;42.696;23.350;2022-08-27T13:05:05;94852.72;;;31.52;28.15
40708;BME280;26392;42.696;23.350;2022-08-27T13:07:33;94857.94;;;31.57;26.69
40708;BME280;26392;42.696;23.350;2022-08-27T13:10:12;94856.72;;;31.58;26.60
40708;BME280;26392;42.696;23.350;2022-08-27T13:12:44;94863.97;;;31.70;28.13
40708;BME280;26392;42.696;23.350;2022-08-27T13:15:11;94868.00;;;31.80;27.30
40708;BME280;26392;42.696;23.350;2022-08-27T13:17:42;94866.38;;;31.72;27.37
40708;BME280;26392;42.696;23.350;2022-08-27T13:20:23;94850.72;;;31.46;27.20
40708;BME280;26392;42.696;23.350;2022-08-27T13:22:51;94855.13;;;31.43;28.22
40708;BME280;26392;42.696;23.350;2022-08-27T13:25:32;94839.03;;;31.43;28.46
40708;BME280;26392;42.696;23.350;2022-08-27T13:28:18;94853.09;;;31.47;28.41
40708;BME280;26392;42.696;23.350;2022-08-27T13:30:46;94844.66;;;31.43;26.53
40708;BME280;26392;42.696;23.350;2022-08-27T13:33:33;94841.44;;;31.41;27.65
40708;BME280;26392;42.696;23.350;2022-08-27T13:36:00;94850.72;;;31.46;27.70
40708;BME280;26392;42.696;23.350;2022-08-27T13:38:30;94833.41;;;31.43;26.44
40708;BME280;26392;42.696;23.350;2022-08-27T13:45:56;94837.84;;;31.37;27.01
40708;BME280;26392;42.696;23.350;2022-08-27T13:48:22;94837.78;;;31.16;26.86
40708;BME280;26392;42.696;23.350;2022-08-27T13:50:51;94834.97;;;31.16;26.71
40708;BME280;26392;42.696;23.350;2022-08-27T13:53:28;94826.94;;;31.18;26.81
40708;BME280;26392;42.696;23.350;2022-08-27T13:56:29;94830.50;;;31.11;27.41
40708;BME280;26392;42.696;23.350;2022-08-27T14:01:34;94835.75;;;31.20;27.72
40708;BME280;26392;42.696;23.350;2022-08-27T14:04:05;94836.56;;;31.24;26.37
40708;BME280;26392;42.696;23.350;2022-08-27T14:06:45;94837.38;;;31.25;27.51
40708;BME280;26392;42.696;23.350;2022-08-27T14:09:24;94835.75;;;31.13;26.71
40708;BME280;26392;42.696;23.350;2022-08-27T14:12:06;94841.78;;;31.15;26.53
40708;BME280;26392;42.696;23.350;2022-08-27T14:14:39;94838.97;;;31.15;27.51
40708;BME280;26392;42.696;23.350;2022-08-27T14:17:20;94836.94;;;31.05;26.36
40708;BME280;26392;42.696;23.350;2022-08-27T14:19:45;94838.97;;;31.01;26.49
40708;BME280;26392;42.696;23.350;2022-08-27T14:22:12;94838.56;;;31.09;26.30
40708;BME280;26392;42.696;23.350;2022-08-27T14:24:38;94838.53;;;31.06;27.13
40708;BME280;26392;42.696;23.350;2022-08-27T14:27:09;94833.72;;;30.99;26.12
40708;BME280;26392;42.696;23.350;2022-08-27T14:29:37;94846.56;;;30.93;26.36
40708;BME280;26392;42.696;23.350;2022-08-27T14:32:03;94840.53;;;30.91;27.06
40708;BME280;26392;42.696;23.350;2022-08-27T14:34:28;94847.75;;;30.92;26.97